sensor_id;sensor_type;location;lat;lon;timestamp;P1;durP1;ratioP1;P2;durP2;ratioP2
81006;SDS011;70472;47.592;17.640;2023-08-20T00:00:31;11.60;;;11.60;;
81006;SDS011;70472;47.592;17.640;2023-08-20T00:01:04;11.93;;;11.93;;
81006;SDS011;70472;47.592;17.640;2023-08-20T00:01:38;12.27;;;12.27;;
81006;SDS011;70472;47.592;17.640;2023-08-20T00:02:10;12.33;;;12.33;;
81006;SDS011;70472;47.592;17.640;2023-08-20T00:02:43;12.33;;;12.33;;
81006;SDS011;70472;47.592;17.640;2023-08-20T00:03:18;12.13;;;12.13;;
81006;SDS011;70472;47.592;17.640;2023-08-20T00:03:51;11.37;;;11.37;;
81006;SDS011;70472;47.592;17.640;2023-08-20T00:04:25;11.83;;;11.83;;
81006;SDS011;70472;47.592;17.640;2023-08-20T00:04:59;11.87;;;11.87;;
81006;SDS011;70472;47.592;17.640;2023-08-20T00:05:34;12.37;;;12.37;;
81006;SDS011;70472;47.592;17.640;2023-08-20T00:06:07;12.33;;;12.33;;
81006;SDS011;70472;47.592;17.640;2023-08-20T00:06:39;11.73;;;11.73;;
81006;SDS011;70472;47.592;17.640;2023-08-20T00:07:12;12.33;;;12.33;;
81006;SDS011;70472;47.592;17.640;2023-08-20T00:07:45;11.87;;;11.87;;
81006;SDS011;70472;47.592;17.640;2023-08-20T00:08:18;11.57;;;11.57;;
81006;SDS011;70472;47.592;17.640;2023-08-20T00:08:50;12.60;;;12.60;;
81006;SDS011;70472;47.592;17.640;2023-08-20T00:09:23;12.37;;;12.37;;
81006;SDS011;70472;47.592;17.640;2023-08-20T00:09:56;12.73;;;12.73;;
81006;SDS011;70472;47.592;17.640;2023-08-20T00:10:28;11.57;;;11.57;;
81006;SDS011;70472;47.592;17.640;2023-08-20T00:11:01;11.23;;;11.23;;
81006;SDS011;70472;47.592;17.640;2023-08-20T00:11:34;11.47;;;11.47;;
81006;SDS011;70472;47.592;17.640;2023-08-20T00:12:06;12.03;;;12.03;;
81006;SDS011;70472;47.592;17.640;2023-08-20T00:12:39;11.70;;;11.70;;
81006;SDS011;70472;47.592;17.640;2023-08-20T00:13:11;11.83;;;11.83;;
81006;SDS011;70472;47.592;17.640;2023-08-20T00:13:44;12.47;;;12.47;;
81006;SDS011;70472;47.592;17.640;2023-08-20T00:14:16;11.43;;;11.43;;
81006;SDS011;70472;47.592;17.640;2023-08-20T00:15:28;11.23;;;11.23;;
81006;SDS011;70472;47.592;17.640;2023-08-20T00:16:01;11.60;;;11.60;;
81006;SDS011;70472;47.592;17.640;2023-08-20T00:16:34;11.80;;;11.80;;
81006;SDS011;70472;47.592;17.640;2023-08-20T00:17:07;11.70;;;11.70;;
81006;SDS011;70472;47.592;17.640;2023-08-20T00:17:40;11.53;;;11.53;;
81006;SDS011;70472;47.592;17.640;2023-08-20T00:18:13;12.03;;;12.03;;
81006;SDS011;70472;47.592;17.640;2023-08-20T00:18:46;11.67;;;11.67;;
81006;SDS011;70472;47.592;17.640;2023-08-20T00:19:19;11.67;;;11.67;;
81006;SDS011;70472;47.592;17.640;2023-08-20T00:19:52;12.60;;;12.60;;
81006;SDS011;70472;47.592;17.640;2023-08-20T00:20:28;11.87;;;11.87;;
81006;SDS011;70472;47.592;17.640;2023-08-20T00:21:01;11.97;;;11.97;;
81006;SDS011;70472;47.592;17.640;2023-08-20T00:21:33;11.90;;;11.90;;
81006;SDS011;70472;47.592;17.640;2023-08-20T00:22:06;11.90;;;11.90;;
81006;SDS011;70472;47.592;17.640;2023-08-20T00:22:39;11.83;;;11.83;;
81006;SDS011;70472;47.592;17.640;2023-08-20T00:23:13;11.63;;;11.63;;
81006;SDS011;70472;47.592;17.640;2023-08-20T00:23:46;11.00;;;11.00;;
81006;SDS011;70472;47.592;17.640;2023-08-20T00:24:19;11.47;;;11.47;;
81006;SDS011;70472;47.592;17.640;2023-08-20T00:24:52;12.50;;;12.50;;
81006;SDS011;70472;47.592;17.640;2023-08-20T00:25:26;11.97;;;11.97;;
81006;SDS011;70472;47.592;17.640;2023-08-20T00:25:59;11.13;;;11.13;;
81006;SDS011;70472;47.592;17.640;2023-08-20T00:26:32;11.67;;;11.67;;
81006;SDS011;70472;47.592;17.640;2023-08-20T00:27:05;12.80;;;12.80;;
81006;SDS011;70472;47.592;17.640;2023-08-20T00:27:40;12.00;;;12.00;;
81006;SDS011;70472;47.592;17.640;2023-08-20T00:28:14;12.73;;;12.73;;
81006;SDS011;70472;47.592;17.640;2023-08-20T00:28:46;12.40;;;12.40;;
81006;SDS011;70472;47.592;17.640;2023-08-20T00:29:18;11.93;;;11.93;;
81006;SDS011;70472;47.592;17.640;2023-08-20T00:29:51;11.30;;;11.30;;
81006;SDS011;70472;47.592;17.640;2023-08-20T00:30:24;11.53;;;11.53;;
81006;SDS011;70472;47.592;17.640;2023-08-20T00:30:56;11.13;;;11.13;;
81006;SDS011;70472;47.592;17.640;2023-08-20T00:31:29;10.53;;;10.53;;
81006;SDS011;70472;47.592;17.640;2023-08-20T00:32:01;11.83;;;11.83;;
81006;SDS011;70472;47.592;17.640;2023-08-20T00:32:34;11.57;;;11.57;;
81006;SDS011;70472;47.592;17.640;2023-08-20T00:33:08;11.13;;;11.13;;
81006;SDS011;70472;47.592;17.640;2023-08-20T00:33:40;11.83;;;11.83;;
81006;SDS011;70472;47.592;17.640;2023-08-20T00:34:16;12.03;;;12.03;;
81006;SDS011;70472;47.592;17.640;2023-08-20T00:34:48;11.80;;;11.80;;
81006;SDS011;70472;47.592;17.640;2023-08-20T00:35:21;11.43;;;11.43;;
81006;SDS011;70472;47.592;17.640;2023-08-20T00:35:53;11.23;;;11.23;;
81006;SDS011;70472;47.592;17.640;2023-08-20T00:36:26;11.90;;;11.90;;
81006;SDS011;70472;47.592;17.640;2023-08-20T00:36:58;12.47;;;12.47;;
81006;SDS011;70472;47.592;17.640;2023-08-20T00:37:31;12.53;;;12.53;;
81006;SDS011;70472;47.592;17.640;2023-08-20T00:38:04;12.83;;;12.83;;
81006;SDS011;70472;47.592;17.640;2023-08-20T00:38:37;11.80;;;11.80;;
81006;SDS011;70472;47.592;17.640;2023-08-20T00:39:10;12.57;;;12.57;;
81006;SDS011;70472;47.592;17.640;2023-08-20T00:39:42;11.67;;;11.67;;
81006;SDS011;70472;47.592;17.640;2023-08-20T00:40:15;11.80;;;11.80;;
81006;SDS011;70472;47.592;17.640;2023-08-20T00:40:47;11.57;;;11.57;;
81006;SDS011;70472;47.592;17.640;2023-08-20T00:41:19;11.37;;;11.37;;
81006;SDS011;70472;47.592;17.640;2023-08-20T00:41:52;11.00;;;11.00;;
81006;SDS011;70472;47.592;17.640;2023-08-20T00:42:25;11.23;;;11.23;;
81006;SDS011;70472;47.592;17.640;2023-08-20T00:42:57;12.00;;;12.00;;
81006;SDS011;70472;47.592;17.640;2023-08-20T00:43:30;11.23;;;11.23;;
81006;SDS011;70472;47.592;17.640;2023-08-20T00:44:02;12.17;;;12.17;;
81006;SDS011;70472;47.592;17.640;2023-08-20T00:44:35;11.53;;;11.53;;
81006;SDS011;70472;47.592;17.640;2023-08-20T00:45:07;11.80;;;11.80;;
81006;SDS011;70472;47.592;17.640;2023-08-20T00:45:40;11.80;;;11.80;;
81006;SDS011;70472;47.592;17.640;2023-08-20T00:46:13;12.63;;;12.63;;
81006;SDS011;70472;47.592;17.640;2023-08-20T00:46:46;11.20;;;11.20;;
81006;SDS011;70472;47.592;17.640;2023-08-20T00:47:19;12.03;;;12.03;;
81006;SDS011;70472;47.592;17.640;2023-08-20T00:47:52;12.83;;;12.83;;
81006;SDS011;70472;47.592;17.640;2023-08-20T00:48:25;11.00;;;11.00;;
81006;SDS011;70472;47.592;17.640;2023-08-20T00:48:58;11.67;;;11.67;;
81006;SDS011;70472;47.592;17.640;2023-08-20T00:49:31;12.10;;;12.10;;
81006;SDS011;70472;47.592;17.640;2023-08-20T00:50:04;11.90;;;11.90;;
81006;SDS011;70472;47.592;17.640;2023-08-20T00:50:38;11.80;;;11.80;;
81006;SDS011;70472;47.592;17.640;2023-08-20T00:51:12;11.93;;;11.93;;
81006;SDS011;70472;47.592;17.640;2023-08-20T00:51:44;11.67;;;11.67;;
81006;SDS011;70472;47.592;17.640;2023-08-20T00:52:17;12.03;;;12.03;;
81006;SDS011;70472;47.592;17.640;2023-08-20T00:52:50;12.70;;;12.70;;
81006;SDS011;70472;47.592;17.640;2023-08-20T00:53:23;11.83;;;11.83;;
81006;SDS011;70472;47.592;17.640;2023-08-20T00:53:57;13.03;;;13.03;;
81006;SDS011;70472;47.592;17.640;2023-08-20T00:54:29;12.53;;;12.53;;
81006;SDS011;70472;47.592;17.640;2023-08-20T00:55:06;12.50;;;12.50;;
81006;SDS011;70472;47.592;17.640;2023-08-20T00:55:42;12.33;;;12.33;;
81006;SDS011;70472;47.592;17.640;2023-08-20T00:56:15;11.53;;;11.53;;
81006;SDS011;70472;47.592;17.640;2023-08-20T00:56:49;11.87;;;11.87;;
81006;SDS011;70472;47.592;17.640;2023-08-20T00:57:22;12.07;;;12.07;;
81006;SDS011;70472;47.592;17.640;2023-08-20T00:57:55;11.90;;;11.90;;
81006;SDS011;70472;47.592;17.640;2023-08-20T00:58:28;12.93;;;12.93;;
81006;SDS011;70472;47.592;17.640;2023-08-20T00:59:01;12.93;;;12.93;;
81006;SDS011;70472;47.592;17.640;2023-08-20T00:59:36;12.37;;;12.37;;
81006;SDS011;70472;47.592;17.640;2023-08-20T01:00:09;12.17;;;12.17;;
81006;SDS011;70472;47.592;17.640;2023-08-20T01:00:42;11.00;;;11.00;;
81006;SDS011;70472;47.592;17.640;2023-08-20T01:01:15;12.27;;;12.27;;
81006;SDS011;70472;47.592;17.640;2023-08-20T01:01:47;12.43;;;12.43;;
81006;SDS011;70472;47.592;17.640;2023-08-20T01:02:20;11.67;;;11.67;;
81006;SDS011;70472;47.592;17.640;2023-08-20T01:02:52;12.37;;;12.37;;
81006;SDS011;70472;47.592;17.640;2023-08-20T01:03:25;12.57;;;12.57;;
81006;SDS011;70472;47.592;17.640;2023-08-20T01:03:57;12.10;;;12.10;;
81006;SDS011;70472;47.592;17.640;2023-08-20T01:04:30;13.27;;;13.27;;
81006;SDS011;70472;47.592;17.640;2023-08-20T01:05:03;12.33;;;12.33;;
81006;SDS011;70472;47.592;17.640;2023-08-20T01:05:42;12.10;;;12.10;;
81006;SDS011;70472;47.592;17.640;2023-08-20T01:06:31;12.50;;;12.50;;
81006;SDS011;70472;47.592;17.640;2023-08-20T01:07:24;12.63;;;12.63;;
81006;SDS011;70472;47.592;17.640;2023-08-20T01:08:52;12.33;;;12.33;;
81006;SDS011;70472;47.592;17.640;2023-08-20T01:11:03;11.87;;;11.87;;
81006;SDS011;70472;47.592;17.640;2023-08-20T01:11:49;11.90;;;11.90;;
81006;SDS011;70472;47.592;17.640;2023-08-20T01:12:34;12.07;;;12.07;;
81006;SDS011;70472;47.592;17.640;2023-08-20T01:13:08;12.10;;;12.10;;
81006;SDS011;70472;47.592;17.640;2023-08-20T01:13:41;11.80;;;11.80;;
81006;SDS011;70472;47.592;17.640;2023-08-20T01:14:14;11.07;;;11.07;;
81006;SDS011;70472;47.592;17.640;2023-08-20T01:14:48;11.73;;;11.73;;
81006;SDS011;70472;47.592;17.640;2023-08-20T01:15:20;12.43;;;12.43;;
81006;SDS011;70472;47.592;17.640;2023-08-20T01:15:53;12.47;;;12.47;;
81006;SDS011;70472;47.592;17.640;2023-08-20T01:16:25;12.10;;;12.10;;
81006;SDS011;70472;47.592;17.640;2023-08-20T01:16:58;12.80;;;12.80;;
81006;SDS011;70472;47.592;17.640;2023-08-20T01:17:30;12.70;;;12.70;;
81006;SDS011;70472;47.592;17.640;2023-08-20T01:18:03;12.70;;;12.70;;
81006;SDS011;70472;47.592;17.640;2023-08-20T01:18:35;12.57;;;12.57;;
81006;SDS011;70472;47.592;17.640;2023-08-20T01:19:10;12.33;;;12.33;;
81006;SDS011;70472;47.592;17.640;2023-08-20T01:19:51;11.87;;;11.87;;
81006;SDS011;70472;47.592;17.640;2023-08-20T01:20:25;11.87;;;11.87;;
81006;SDS011;70472;47.592;17.640;2023-08-20T01:21:04;11.87;;;11.87;;
81006;SDS011;70472;47.592;17.640;2023-08-20T01:26:06;12.40;;;12.40;;
81006;SDS011;70472;47.592;17.640;2023-08-20T01:28:31;12.90;;;12.90;;
81006;SDS011;70472;47.592;17.640;2023-08-20T01:29:03;12.33;;;12.33;;
81006;SDS011;70472;47.592;17.640;2023-08-20T01:29:37;12.13;;;12.13;;
81006;SDS011;70472;47.592;17.640;2023-08-20T01:30:11;12.67;;;12.67;;
81006;SDS011;70472;47.592;17.640;2023-08-20T01:30:45;12.83;;;12.83;;
81006;SDS011;70472;47.592;17.640;2023-08-20T01:31:18;12.47;;;12.47;;
81006;SDS011;70472;47.592;17.640;2023-08-20T01:31:53;13.00;;;13.00;;
81006;SDS011;70472;47.592;17.640;2023-08-20T01:32:27;12.30;;;12.30;;
81006;SDS011;70472;47.592;17.640;2023-08-20T01:32:59;12.37;;;12.37;;
81006;SDS011;70472;47.592;17.640;2023-08-20T01:33:33;11.87;;;11.87;;
81006;SDS011;70472;47.592;17.640;2023-08-20T01:34:07;11.93;;;11.93;;
81006;SDS011;70472;47.592;17.640;2023-08-20T01:34:39;13.33;;;13.33;;
81006;SDS011;70472;47.592;17.640;2023-08-20T01:35:12;12.93;;;12.93;;
81006;SDS011;70472;47.592;17.640;2023-08-20T01:35:45;12.60;;;12.60;;
81006;SDS011;70472;47.592;17.640;2023-08-20T01:36:20;12.00;;;12.00;;
81006;SDS011;70472;47.592;17.640;2023-08-20T01:36:54;12.37;;;12.37;;
81006;SDS011;70472;47.592;17.640;2023-08-20T01:37:26;13.47;;;13.47;;
81006;SDS011;70472;47.592;17.640;2023-08-20T01:37:58;11.97;;;11.97;;
81006;SDS011;70472;47.592;17.640;2023-08-20T01:38:31;12.20;;;12.20;;
81006;SDS011;70472;47.592;17.640;2023-08-20T01:39:03;12.27;;;12.27;;
81006;SDS011;70472;47.592;17.640;2023-08-20T01:39:36;12.20;;;12.20;;
81006;SDS011;70472;47.592;17.640;2023-08-20T01:40:09;13.27;;;13.27;;
81006;SDS011;70472;47.592;17.640;2023-08-20T01:40:42;13.00;;;13.00;;
81006;SDS011;70472;47.592;17.640;2023-08-20T01:41:15;11.90;;;11.90;;
81006;SDS011;70472;47.592;17.640;2023-08-20T01:41:47;13.13;;;13.13;;
81006;SDS011;70472;47.592;17.640;2023-08-20T01:42:20;12.23;;;12.23;;
81006;SDS011;70472;47.592;17.640;2023-08-20T01:42:52;12.73;;;12.73;;
81006;SDS011;70472;47.592;17.640;2023-08-20T01:43:24;12.43;;;12.43;;
81006;SDS011;70472;47.592;17.640;2023-08-20T01:43:58;12.27;;;12.27;;
81006;SDS011;70472;47.592;17.640;2023-08-20T01:44:31;13.00;;;13.00;;
81006;SDS011;70472;47.592;17.640;2023-08-20T01:45:04;12.67;;;12.67;;
81006;SDS011;70472;47.592;17.640;2023-08-20T01:45:38;13.07;;;13.07;;
81006;SDS011;70472;47.592;17.640;2023-08-20T01:46:11;12.13;;;12.13;;
81006;SDS011;70472;47.592;17.640;2023-08-20T01:46:44;12.77;;;12.77;;
81006;SDS011;70472;47.592;17.640;2023-08-20T01:47:16;11.93;;;11.93;;
81006;SDS011;70472;47.592;17.640;2023-08-20T01:47:49;12.23;;;12.23;;
81006;SDS011;70472;47.592;17.640;2023-08-20T01:48:21;12.13;;;12.13;;
81006;SDS011;70472;47.592;17.640;2023-08-20T01:48:54;13.17;;;13.17;;
81006;SDS011;70472;47.592;17.640;2023-08-20T01:49:26;11.73;;;11.73;;
81006;SDS011;70472;47.592;17.640;2023-08-20T01:49:59;12.27;;;12.27;;
81006;SDS011;70472;47.592;17.640;2023-08-20T01:50:32;12.33;;;12.33;;
81006;SDS011;70472;47.592;17.640;2023-08-20T01:51:06;12.60;;;12.60;;
81006;SDS011;70472;47.592;17.640;2023-08-20T01:51:39;12.33;;;12.33;;
81006;SDS011;70472;47.592;17.640;2023-08-20T01:52:11;13.10;;;13.10;;
81006;SDS011;70472;47.592;17.640;2023-08-20T01:52:43;13.17;;;13.17;;
81006;SDS011;70472;47.592;17.640;2023-08-20T01:53:16;13.03;;;13.03;;
81006;SDS011;70472;47.592;17.640;2023-08-20T01:53:48;12.97;;;12.97;;
81006;SDS011;70472;47.592;17.640;2023-08-20T01:54:21;12.47;;;12.47;;
81006;SDS011;70472;47.592;17.640;2023-08-20T01:54:53;12.40;;;12.40;;
81006;SDS011;70472;47.592;17.640;2023-08-20T01:55:26;12.73;;;12.73;;
81006;SDS011;70472;47.592;17.640;2023-08-20T01:55:59;12.83;;;12.83;;
81006;SDS011;70472;47.592;17.640;2023-08-20T01:56:32;12.57;;;12.57;;
81006;SDS011;70472;47.592;17.640;2023-08-20T01:57:04;13.03;;;13.03;;
81006;SDS011;70472;47.592;17.640;2023-08-20T01:57:37;12.00;;;12.00;;
81006;SDS011;70472;47.592;17.640;2023-08-20T01:58:09;12.50;;;12.50;;
81006;SDS011;70472;47.592;17.640;2023-08-20T01:58:42;12.60;;;12.60;;
81006;SDS011;70472;47.592;17.640;2023-08-20T01:59:15;12.03;;;12.03;;
81006;SDS011;70472;47.592;17.640;2023-08-20T01:59:48;12.33;;;12.33;;
81006;SDS011;70472;47.592;17.640;2023-08-20T02:00:20;13.10;;;13.10;;
81006;SDS011;70472;47.592;17.640;2023-08-20T02:00:53;12.37;;;12.37;;
81006;SDS011;70472;47.592;17.640;2023-08-20T02:01:25;11.57;;;11.57;;
81006;SDS011;70472;47.592;17.640;2023-08-20T02:01:57;12.00;;;12.00;;
81006;SDS011;70472;47.592;17.640;2023-08-20T02:02:30;12.87;;;12.87;;
81006;SDS011;70472;47.592;17.640;2023-08-20T02:03:03;12.87;;;12.87;;
81006;SDS011;70472;47.592;17.640;2023-08-20T02:03:36;13.03;;;13.03;;
81006;SDS011;70472;47.592;17.640;2023-08-20T02:04:08;13.67;;;13.67;;
81006;SDS011;70472;47.592;17.640;2023-08-20T02:04:41;12.43;;;12.43;;
81006;SDS011;70472;47.592;17.640;2023-08-20T02:05:14;12.27;;;12.27;;
81006;SDS011;70472;47.592;17.640;2023-08-20T02:05:46;12.07;;;12.07;;
81006;SDS011;70472;47.592;17.640;2023-08-20T02:06:19;13.10;;;13.10;;
81006;SDS011;70472;47.592;17.640;2023-08-20T02:06:51;12.73;;;12.73;;
81006;SDS011;70472;47.592;17.640;2023-08-20T02:07:23;12.60;;;12.60;;
81006;SDS011;70472;47.592;17.640;2023-08-20T02:07:56;12.80;;;12.80;;
81006;SDS011;70472;47.592;17.640;2023-08-20T02:08:28;12.90;;;12.90;;
81006;SDS011;70472;47.592;17.640;2023-08-20T02:09:01;12.40;;;12.40;;
81006;SDS011;70472;47.592;17.640;2023-08-20T02:09:33;12.57;;;12.57;;
81006;SDS011;70472;47.592;17.640;2023-08-20T02:10:06;12.73;;;12.73;;
81006;SDS011;70472;47.592;17.640;2023-08-20T02:10:39;12.33;;;12.33;;
81006;SDS011;70472;47.592;17.640;2023-08-20T02:11:12;12.63;;;12.63;;
81006;SDS011;70472;47.592;17.640;2023-08-20T02:11:44;13.10;;;13.10;;
81006;SDS011;70472;47.592;17.640;2023-08-20T02:12:17;13.67;;;13.67;;
81006;SDS011;70472;47.592;17.640;2023-08-20T02:12:50;13.00;;;13.00;;
81006;SDS011;70472;47.592;17.640;2023-08-20T02:13:22;13.00;;;13.00;;
81006;SDS011;70472;47.592;17.640;2023-08-20T02:13:55;13.83;;;13.83;;
81006;SDS011;70472;47.592;17.640;2023-08-20T02:14:27;13.07;;;13.07;;
81006;SDS011;70472;47.592;17.640;2023-08-20T02:15:00;12.60;;;12.60;;
81006;SDS011;70472;47.592;17.640;2023-08-20T02:15:32;13.03;;;13.03;;
81006;SDS011;70472;47.592;17.640;2023-08-20T02:16:04;13.73;;;13.73;;
81006;SDS011;70472;47.592;17.640;2023-08-20T02:16:37;13.67;;;13.67;;
81006;SDS011;70472;47.592;17.640;2023-08-20T02:17:09;14.57;;;14.57;;
81006;SDS011;70472;47.592;17.640;2023-08-20T02:17:43;13.93;;;13.93;;
81006;SDS011;70472;47.592;17.640;2023-08-20T02:18:15;13.03;;;13.03;;
81006;SDS011;70472;47.592;17.640;2023-08-20T02:18:48;12.97;;;12.97;;
81006;SDS011;70472;47.592;17.640;2023-08-20T02:19:20;12.67;;;12.67;;
81006;SDS011;70472;47.592;17.640;2023-08-20T02:19:53;12.97;;;12.97;;
81006;SDS011;70472;47.592;17.640;2023-08-20T02:20:26;13.07;;;13.07;;
81006;SDS011;70472;47.592;17.640;2023-08-20T02:20:59;13.30;;;13.30;;
81006;SDS011;70472;47.592;17.640;2023-08-20T02:21:32;11.87;;;11.87;;
81006;SDS011;70472;47.592;17.640;2023-08-20T02:22:05;12.37;;;12.37;;
81006;SDS011;70472;47.592;17.640;2023-08-20T02:22:37;13.53;;;13.53;;
81006;SDS011;70472;47.592;17.640;2023-08-20T02:23:10;12.87;;;12.87;;
81006;SDS011;70472;47.592;17.640;2023-08-20T02:23:42;12.03;;;12.03;;
81006;SDS011;70472;47.592;17.640;2023-08-20T02:24:14;12.10;;;12.10;;
81006;SDS011;70472;47.592;17.640;2023-08-20T02:24:47;12.03;;;12.03;;
81006;SDS011;70472;47.592;17.640;2023-08-20T02:25:20;12.27;;;12.27;;
81006;SDS011;70472;47.592;17.640;2023-08-20T02:25:52;12.87;;;12.87;;
81006;SDS011;70472;47.592;17.640;2023-08-20T02:26:25;13.10;;;13.10;;
81006;SDS011;70472;47.592;17.640;2023-08-20T02:26:57;13.17;;;13.17;;
81006;SDS011;70472;47.592;17.640;2023-08-20T02:27:30;12.10;;;12.10;;
81006;SDS011;70472;47.592;17.640;2023-08-20T02:28:02;12.13;;;12.13;;
81006;SDS011;70472;47.592;17.640;2023-08-20T02:28:35;13.33;;;13.33;;
81006;SDS011;70472;47.592;17.640;2023-08-20T02:29:07;13.00;;;13.00;;
81006;SDS011;70472;47.592;17.640;2023-08-20T02:29:40;13.50;;;13.50;;
81006;SDS011;70472;47.592;17.640;2023-08-20T02:30:12;13.37;;;13.37;;
81006;SDS011;70472;47.592;17.640;2023-08-20T02:30:45;13.13;;;13.13;;
81006;SDS011;70472;47.592;17.640;2023-08-20T02:31:18;13.33;;;13.33;;
81006;SDS011;70472;47.592;17.640;2023-08-20T02:31:52;13.17;;;13.17;;
81006;SDS011;70472;47.592;17.640;2023-08-20T02:32:24;12.70;;;12.70;;
81006;SDS011;70472;47.592;17.640;2023-08-20T02:32:56;13.43;;;13.43;;
81006;SDS011;70472;47.592;17.640;2023-08-20T02:33:30;12.53;;;12.53;;
81006;SDS011;70472;47.592;17.640;2023-08-20T02:34:03;14.30;;;14.30;;
81006;SDS011;70472;47.592;17.640;2023-08-20T02:34:35;12.67;;;12.67;;
81006;SDS011;70472;47.592;17.640;2023-08-20T02:35:08;12.07;;;12.07;;
81006;SDS011;70472;47.592;17.640;2023-08-20T02:35:40;12.80;;;12.80;;
81006;SDS011;70472;47.592;17.640;2023-08-20T02:36:13;12.93;;;12.93;;
81006;SDS011;70472;47.592;17.640;2023-08-20T02:36:45;12.30;;;12.30;;
81006;SDS011;70472;47.592;17.640;2023-08-20T02:37:18;11.90;;;11.90;;
81006;SDS011;70472;47.592;17.640;2023-08-20T02:37:50;12.43;;;12.43;;
81006;SDS011;70472;47.592;17.640;2023-08-20T02:38:23;12.80;;;12.80;;
81006;SDS011;70472;47.592;17.640;2023-08-20T02:38:57;12.70;;;12.70;;
81006;SDS011;70472;47.592;17.640;2023-08-20T02:39:29;12.30;;;12.30;;
81006;SDS011;70472;47.592;17.640;2023-08-20T02:40:02;12.87;;;12.87;;
81006;SDS011;70472;47.592;17.640;2023-08-20T02:40:39;12.13;;;12.13;;
81006;SDS011;70472;47.592;17.640;2023-08-20T02:41:16;11.93;;;11.93;;
81006;SDS011;70472;47.592;17.640;2023-08-20T02:41:48;12.27;;;12.27;;
81006;SDS011;70472;47.592;17.640;2023-08-20T02:42:21;12.90;;;12.90;;
81006;SDS011;70472;47.592;17.640;2023-08-20T02:42:53;13.20;;;13.20;;
81006;SDS011;70472;47.592;17.640;2023-08-20T02:43:25;12.57;;;12.57;;
81006;SDS011;70472;47.592;17.640;2023-08-20T02:43:58;12.33;;;12.33;;
81006;SDS011;70472;47.592;17.640;2023-08-20T02:44:31;13.13;;;13.13;;
81006;SDS011;70472;47.592;17.640;2023-08-20T02:45:03;12.87;;;12.87;;
81006;SDS011;70472;47.592;17.640;2023-08-20T02:45:40;13.80;;;13.80;;
81006;SDS011;70472;47.592;17.640;2023-08-20T02:46:15;13.60;;;13.60;;
81006;SDS011;70472;47.592;17.640;2023-08-20T02:46:48;13.10;;;13.10;;
81006;SDS011;70472;47.592;17.640;2023-08-20T02:47:21;13.50;;;13.50;;
81006;SDS011;70472;47.592;17.640;2023-08-20T02:47:54;13.23;;;13.23;;
81006;SDS011;70472;47.592;17.640;2023-08-20T02:48:27;12.70;;;12.70;;
81006;SDS011;70472;47.592;17.640;2023-08-20T02:48:59;13.47;;;13.47;;
81006;SDS011;70472;47.592;17.640;2023-08-20T02:49:32;13.43;;;13.43;;
81006;SDS011;70472;47.592;17.640;2023-08-20T02:50:04;13.13;;;13.13;;
81006;SDS011;70472;47.592;17.640;2023-08-20T02:50:37;13.10;;;13.10;;
81006;SDS011;70472;47.592;17.640;2023-08-20T02:51:09;13.03;;;13.03;;
81006;SDS011;70472;47.592;17.640;2023-08-20T02:51:42;13.53;;;13.53;;
81006;SDS011;70472;47.592;17.640;2023-08-20T02:52:15;14.33;;;14.33;;
81006;SDS011;70472;47.592;17.640;2023-08-20T02:52:48;13.93;;;13.93;;
81006;SDS011;70472;47.592;17.640;2023-08-20T02:53:20;13.17;;;13.17;;
81006;SDS011;70472;47.592;17.640;2023-08-20T02:53:53;13.17;;;13.17;;
81006;SDS011;70472;47.592;17.640;2023-08-20T02:54:26;13.97;;;13.97;;
81006;SDS011;70472;47.592;17.640;2023-08-20T02:54:58;13.30;;;13.30;;
81006;SDS011;70472;47.592;17.640;2023-08-20T02:55:31;12.63;;;12.63;;
81006;SDS011;70472;47.592;17.640;2023-08-20T02:56:04;12.67;;;12.67;;
81006;SDS011;70472;47.592;17.640;2023-08-20T02:56:37;12.57;;;12.57;;
81006;SDS011;70472;47.592;17.640;2023-08-20T02:57:09;12.70;;;12.70;;
81006;SDS011;70472;47.592;17.640;2023-08-20T02:57:42;12.73;;;12.73;;
81006;SDS011;70472;47.592;17.640;2023-08-20T02:58:14;13.60;;;13.60;;
81006;SDS011;70472;47.592;17.640;2023-08-20T02:58:47;13.57;;;13.57;;
81006;SDS011;70472;47.592;17.640;2023-08-20T02:59:20;12.87;;;12.87;;
81006;SDS011;70472;47.592;17.640;2023-08-20T02:59:52;13.50;;;13.50;;
81006;SDS011;70472;47.592;17.640;2023-08-20T03:00:25;12.43;;;12.43;;
81006;SDS011;70472;47.592;17.640;2023-08-20T03:00:57;13.00;;;13.00;;
81006;SDS011;70472;47.592;17.640;2023-08-20T03:01:30;13.00;;;13.00;;
81006;SDS011;70472;47.592;17.640;2023-08-20T03:02:02;13.33;;;13.33;;
81006;SDS011;70472;47.592;17.640;2023-08-20T03:02:35;13.43;;;13.43;;
81006;SDS011;70472;47.592;17.640;2023-08-20T03:03:07;12.67;;;12.67;;
81006;SDS011;70472;47.592;17.640;2023-08-20T03:03:42;12.90;;;12.90;;
81006;SDS011;70472;47.592;17.640;2023-08-20T03:04:14;13.60;;;13.60;;
81006;SDS011;70472;47.592;17.640;2023-08-20T03:04:47;13.63;;;13.63;;
81006;SDS011;70472;47.592;17.640;2023-08-20T03:05:19;12.90;;;12.90;;
81006;SDS011;70472;47.592;17.640;2023-08-20T03:05:52;12.43;;;12.43;;
81006;SDS011;70472;47.592;17.640;2023-08-20T03:06:24;13.30;;;13.30;;
81006;SDS011;70472;47.592;17.640;2023-08-20T03:06:57;13.07;;;13.07;;
81006;SDS011;70472;47.592;17.640;2023-08-20T03:07:29;13.73;;;13.73;;
81006;SDS011;70472;47.592;17.640;2023-08-20T03:08:02;14.30;;;14.30;;
81006;SDS011;70472;47.592;17.640;2023-08-20T03:08:35;13.80;;;13.80;;
81006;SDS011;70472;47.592;17.640;2023-08-20T03:09:07;13.80;;;13.80;;
81006;SDS011;70472;47.592;17.640;2023-08-20T03:09:40;13.47;;;13.47;;
81006;SDS011;70472;47.592;17.640;2023-08-20T03:10:12;13.77;;;13.77;;
81006;SDS011;70472;47.592;17.640;2023-08-20T03:10:44;13.30;;;13.30;;
81006;SDS011;70472;47.592;17.640;2023-08-20T03:11:17;13.13;;;13.13;;
81006;SDS011;70472;47.592;17.640;2023-08-20T03:11:49;13.23;;;13.23;;
81006;SDS011;70472;47.592;17.640;2023-08-20T03:12:22;13.37;;;13.37;;
81006;SDS011;70472;47.592;17.640;2023-08-20T03:12:54;12.53;;;12.53;;
81006;SDS011;70472;47.592;17.640;2023-08-20T03:13:27;12.77;;;12.77;;
81006;SDS011;70472;47.592;17.640;2023-08-20T03:13:59;14.33;;;14.33;;
81006;SDS011;70472;47.592;17.640;2023-08-20T03:14:31;14.00;;;14.00;;
81006;SDS011;70472;47.592;17.640;2023-08-20T03:15:04;12.67;;;12.67;;
81006;SDS011;70472;47.592;17.640;2023-08-20T03:15:37;13.37;;;13.37;;
81006;SDS011;70472;47.592;17.640;2023-08-20T03:16:10;14.00;;;14.00;;
81006;SDS011;70472;47.592;17.640;2023-08-20T03:16:42;12.50;;;12.50;;
81006;SDS011;70472;47.592;17.640;2023-08-20T03:17:15;12.80;;;12.80;;
81006;SDS011;70472;47.592;17.640;2023-08-20T03:17:47;13.03;;;13.03;;
81006;SDS011;70472;47.592;17.640;2023-08-20T03:18:20;13.67;;;13.67;;
81006;SDS011;70472;47.592;17.640;2023-08-20T03:18:52;12.90;;;12.90;;
81006;SDS011;70472;47.592;17.640;2023-08-20T03:19:24;13.10;;;13.10;;
81006;SDS011;70472;47.592;17.640;2023-08-20T03:19:57;14.07;;;14.07;;
81006;SDS011;70472;47.592;17.640;2023-08-20T03:20:32;13.33;;;13.33;;